<?xml version="1.0" encoding="UTF-8" standalone="no" ?>
<gpx xmlns="http://www.topografix.com/GPX/1/1" xmlns:xsi="http://www.w3.org/2001/XMLSchema-instance" xsi:schemaLocation="http://www.topografix.com/GPX/1/1 http://www.topografix.com/GPX/1/1/gpx.xsd" version="1.1" creator="VisuGPX - https://www.visugpx.com">
  <metadata>
    <name>mrt barrage 22</name>
    <desc><![CDATA[barrage de guerledan 22]]></desc>
  </metadata>
  <trk>
    <name><![CDATA[mrt barrage 22_1]]></name>
    <trkseg>
      <trkpt lat="48.1997" lon="-3.01019">
        <ele>161</ele>
        <time>2015-05-13T07:43:13Z</time>
      </trkpt>
      <trkpt lat="48.19781" lon="-3.00928">
        <ele>136</ele>
        <time>2015-05-13T07:46:38Z</time>
      </trkpt>
      <trkpt lat="48.19743" lon="-3.01043">
        <ele>134</ele>
        <time>2015-05-13T07:47:53Z</time>
      </trkpt>
      <trkpt lat="48.19743" lon="-3.01187">
        <ele>114</ele>
        <time>2015-05-13T07:49:08Z</time>
      </trkpt>
      <trkpt lat="48.19739" lon="-3.01284">
        <ele>119</ele>
        <time>2015-05-13T07:50:20Z</time>
      </trkpt>
      <trkpt lat="48.19823" lon="-3.01218">
        <ele>130</ele>
        <time>2015-05-13T07:57:24Z</time>
      </trkpt>
      <trkpt lat="48.19847" lon="-3.01467">
        <ele>127</ele>
        <time>2015-05-13T08:01:55Z</time>
      </trkpt>
      <trkpt lat="48.19968" lon="-3.01332">
        <ele>139</ele>
        <time>2015-05-13T08:06:04Z</time>
      </trkpt>
      <trkpt lat="48.20087" lon="-3.01444">
        <ele>150</ele>
        <time>2015-05-13T08:11:46Z</time>
      </trkpt>
      <trkpt lat="48.20121" lon="-3.015">
        <ele>128</ele>
        <time>2015-05-13T08:12:40Z</time>
      </trkpt>
      <trkpt lat="48.20191" lon="-3.01398">
        <ele>116</ele>
        <time>2015-05-13T08:15:09Z</time>
      </trkpt>
      <trkpt lat="48.20376" lon="-3.01285">
        <ele>131</ele>
        <time>2015-05-13T08:18:05Z</time>
      </trkpt>
      <trkpt lat="48.20584" lon="-3.01277">
        <ele>127</ele>
        <time>2015-05-13T08:22:29Z</time>
      </trkpt>
      <trkpt lat="48.20778" lon="-3.01395">
        <ele>133</ele>
        <time>2015-05-13T08:29:25Z</time>
      </trkpt>
      <trkpt lat="48.20843" lon="-3.01339">
        <ele>137</ele>
        <time>2015-05-13T08:30:38Z</time>
      </trkpt>
      <trkpt lat="48.20969" lon="-3.01305">
        <ele>123</ele>
        <time>2015-05-13T08:32:51Z</time>
      </trkpt>
      <trkpt lat="48.20992" lon="-3.01112">
        <ele>116</ele>
        <time>2015-05-13T08:35:23Z</time>
      </trkpt>
      <trkpt lat="48.21007" lon="-3.01034">
        <ele>116</ele>
        <time>2015-05-13T08:36:05Z</time>
      </trkpt>
      <trkpt lat="48.2127" lon="-3.01182">
        <ele>120</ele>
        <time>2015-05-13T08:39:45Z</time>
      </trkpt>
      <trkpt lat="48.21364" lon="-3.01523">
        <ele>127</ele>
        <time>2015-05-13T08:42:46Z</time>
      </trkpt>
      <trkpt lat="48.21271" lon="-3.01929">
        <ele>118</ele>
        <time>2015-05-13T08:46:27Z</time>
      </trkpt>
      <trkpt lat="48.21301" lon="-3.0218">
        <ele>116</ele>
        <time>2015-05-13T08:49:32Z</time>
      </trkpt>
      <trkpt lat="48.21216" lon="-3.02485">
        <ele>118</ele>
        <time>2015-05-13T08:52:27Z</time>
      </trkpt>
      <trkpt lat="48.21156" lon="-3.02486">
        <ele>102</ele>
        <time>2015-05-13T08:53:10Z</time>
      </trkpt>
      <trkpt lat="48.21031" lon="-3.02491">
        <ele>104</ele>
        <time>2015-05-13T08:54:42Z</time>
      </trkpt>
      <trkpt lat="48.21006" lon="-3.02596">
        <ele>125</ele>
        <time>2015-05-13T08:56:07Z</time>
      </trkpt>
      <trkpt lat="48.20999" lon="-3.02591">
        <ele>129</ele>
        <time>2015-05-13T08:56:25Z</time>
      </trkpt>
      <trkpt lat="48.2092" lon="-3.02526">
        <ele>118</ele>
        <time>2015-05-13T08:57:43Z</time>
      </trkpt>
      <trkpt lat="48.20702" lon="-3.01956">
        <ele>119</ele>
        <time>2015-05-13T09:03:33Z</time>
      </trkpt>
      <trkpt lat="48.20671" lon="-3.01805">
        <ele>118</ele>
        <time>2015-05-13T09:07:01Z</time>
      </trkpt>
      <trkpt lat="48.2064" lon="-3.01604">
        <ele>120</ele>
        <time>2015-05-13T09:09:58Z</time>
      </trkpt>
      <trkpt lat="48.20548" lon="-3.01512">
        <ele>128</ele>
        <time>2015-05-13T09:12:20Z</time>
      </trkpt>
      <trkpt lat="48.20511" lon="-3.01514">
        <ele>138</ele>
        <time>2015-05-13T09:13:54Z</time>
      </trkpt>
      <trkpt lat="48.20457" lon="-3.01554">
        <ele>121</ele>
        <time>2015-05-13T09:15:34Z</time>
      </trkpt>
      <trkpt lat="48.20375" lon="-3.01579">
        <ele>134</ele>
        <time>2015-05-13T09:17:38Z</time>
      </trkpt>
      <trkpt lat="48.20363" lon="-3.01656">
        <ele>141</ele>
        <time>2015-05-13T09:19:53Z</time>
      </trkpt>
      <trkpt lat="48.2032" lon="-3.0171">
        <ele>135</ele>
        <time>2015-05-13T09:21:19Z</time>
      </trkpt>
      <trkpt lat="48.20343" lon="-3.02057">
        <ele>135</ele>
        <time>2015-05-13T09:25:40Z</time>
      </trkpt>
      <trkpt lat="48.20177" lon="-3.01963">
        <ele>135</ele>
        <time>2015-05-13T09:30:07Z</time>
      </trkpt>
      <trkpt lat="48.20137" lon="-3.01759">
        <ele>123</ele>
        <time>2015-05-13T09:34:09Z</time>
      </trkpt>
      <trkpt lat="48.20137" lon="-3.01794">
        <ele>115</ele>
        <time>2015-05-13T09:35:37Z</time>
      </trkpt>
      <trkpt lat="48.19922" lon="-3.01704">
        <ele>121</ele>
        <time>2015-05-13T09:39:11Z</time>
      </trkpt>
      <trkpt lat="48.19972" lon="-3.01824">
        <ele>155</ele>
        <time>2015-05-13T09:46:20Z</time>
      </trkpt>
      <trkpt lat="48.19962" lon="-3.01805">
        <ele>157</ele>
        <time>2015-05-13T09:47:33Z</time>
      </trkpt>
      <trkpt lat="48.19923" lon="-3.0186">
        <ele>140</ele>
        <time>2015-05-13T09:51:46Z</time>
      </trkpt>
      <trkpt lat="48.19886" lon="-3.02227">
        <ele>118</ele>
        <time>2015-05-13T09:55:40Z</time>
      </trkpt>
      <trkpt lat="48.19858" lon="-3.02268">
        <ele>133</ele>
        <time>2015-05-13T09:57:01Z</time>
      </trkpt>
      <trkpt lat="48.19941" lon="-3.02356">
        <ele>147</ele>
        <time>2015-05-13T10:00:03Z</time>
      </trkpt>
      <trkpt lat="48.19995" lon="-3.02906">
        <ele>134</ele>
        <time>2015-05-13T10:05:00Z</time>
      </trkpt>
      <trkpt lat="48.20007" lon="-3.02925">
        <ele>134</ele>
        <time>2015-05-13T10:05:12Z</time>
      </trkpt>
      <trkpt lat="48.20187" lon="-3.03148">
        <ele>156</ele>
        <time>2015-05-13T10:08:07Z</time>
      </trkpt>
      <trkpt lat="48.20373" lon="-3.03223">
        <ele>185</ele>
        <time>2015-05-13T10:11:06Z</time>
      </trkpt>
      <trkpt lat="48.20385" lon="-3.03252">
        <ele>179</ele>
        <time>2015-05-13T10:11:27Z</time>
      </trkpt>
      <trkpt lat="48.20414" lon="-3.0344">
        <ele>173</ele>
        <time>2015-05-13T10:15:25Z</time>
      </trkpt>
      <trkpt lat="48.20563" lon="-3.03809">
        <ele>164</ele>
        <time>2015-05-13T10:22:55Z</time>
      </trkpt>
      <trkpt lat="48.20562" lon="-3.03825">
        <ele>163</ele>
        <time>2015-05-13T10:23:21Z</time>
      </trkpt>
      <trkpt lat="48.20506" lon="-3.03963">
        <ele>120</ele>
        <time>2015-05-13T10:26:34Z</time>
      </trkpt>
      <trkpt lat="48.20578" lon="-3.04246">
        <ele>112</ele>
        <time>2015-05-13T10:29:25Z</time>
      </trkpt>
      <trkpt lat="48.20782" lon="-3.0448">
        <ele>124</ele>
        <time>2015-05-13T10:35:40Z</time>
      </trkpt>
      <trkpt lat="48.20924" lon="-3.04345">
        <ele>131</ele>
        <time>2015-05-13T10:38:14Z</time>
      </trkpt>
      <trkpt lat="48.21006" lon="-3.0408">
        <ele>143</ele>
        <time>2015-05-13T10:41:11Z</time>
      </trkpt>
      <trkpt lat="48.21019" lon="-3.04026">
        <ele>133</ele>
        <time>2015-05-13T10:41:45Z</time>
      </trkpt>
      <trkpt lat="48.21056" lon="-3.04122">
        <ele>121</ele>
        <time>2015-05-13T10:43:11Z</time>
      </trkpt>
      <trkpt lat="48.21002" lon="-3.04401">
        <ele>126</ele>
        <time>2015-05-13T10:46:31Z</time>
      </trkpt>
      <trkpt lat="48.20987" lon="-3.04415">
        <ele>103</ele>
        <time>2015-05-13T10:46:53Z</time>
      </trkpt>
      <trkpt lat="48.20874" lon="-3.04625">
        <ele>127</ele>
        <time>2015-05-13T10:49:10Z</time>
      </trkpt>
      <trkpt lat="48.21059" lon="-3.04942">
        <ele>128</ele>
        <time>2015-05-13T10:52:44Z</time>
      </trkpt>
      <trkpt lat="48.20776" lon="-3.04731">
        <ele>124</ele>
        <time>2015-05-13T10:52:48Z</time>
      </trkpt>
      <trkpt lat="48.20769" lon="-3.04714">
        <ele>140</ele>
        <time>2015-05-13T10:53:44Z</time>
      </trkpt>
      <trkpt lat="48.20659" lon="-3.04574">
        <ele>124</ele>
        <time>2015-05-13T10:56:08Z</time>
      </trkpt>
      <trkpt lat="48.20534" lon="-3.0471">
        <ele>123</ele>
        <time>2015-05-13T10:59:34Z</time>
      </trkpt>
      <trkpt lat="48.2061" lon="-3.04887">
        <ele>123</ele>
        <time>2015-05-13T11:01:54Z</time>
      </trkpt>
      <trkpt lat="48.20599" lon="-3.05">
        <ele>133</ele>
        <time>2015-05-13T11:04:34Z</time>
      </trkpt>
      <trkpt lat="48.2076" lon="-3.05256">
        <ele>147</ele>
        <time>2015-05-13T11:10:34Z</time>
      </trkpt>
      <trkpt lat="48.20971" lon="-3.05395">
        <ele>154</ele>
        <time>2015-05-13T11:13:47Z</time>
      </trkpt>
      <trkpt lat="48.20999" lon="-3.05659">
        <ele>161</ele>
        <time>2015-05-13T11:16:11Z</time>
      </trkpt>
      <trkpt lat="48.21" lon="-3.05662">
        <ele>161</ele>
        <time>2015-05-13T11:16:13Z</time>
      </trkpt>
      <trkpt lat="48.20885" lon="-3.05619">
        <ele>155</ele>
        <time>2015-05-13T11:18:50Z</time>
      </trkpt>
      <trkpt lat="48.20788" lon="-3.05785">
        <ele>145</ele>
        <time>2015-05-13T11:20:49Z</time>
      </trkpt>
      <trkpt lat="48.20782" lon="-3.05824">
        <ele>145</ele>
        <time>2015-05-13T11:21:08Z</time>
      </trkpt>
      <trkpt lat="48.20751" lon="-3.05974">
        <ele>161</ele>
        <time>2015-05-13T11:23:04Z</time>
      </trkpt>
      <trkpt lat="48.2079" lon="-3.06383">
        <ele>168</ele>
        <time>2015-05-13T11:27:26Z</time>
      </trkpt>
      <trkpt lat="48.20787" lon="-3.06378">
        <ele>178</ele>
        <time>2015-05-13T11:31:42Z</time>
      </trkpt>
      <trkpt lat="48.20637" lon="-3.06974">
        <ele>117</ele>
        <time>2015-05-13T11:42:33Z</time>
      </trkpt>
      <trkpt lat="48.20623" lon="-3.06989">
        <ele>117</ele>
        <time>2015-05-13T11:44:58Z</time>
      </trkpt>
      <trkpt lat="48.20656" lon="-3.06953">
        <ele>120</ele>
        <time>2015-05-13T11:48:22Z</time>
      </trkpt>
      <trkpt lat="48.207" lon="-3.07137">
        <ele>122</ele>
        <time>2015-05-13T11:51:07Z</time>
      </trkpt>
      <trkpt lat="48.20878" lon="-3.07438">
        <ele>119</ele>
        <time>2015-05-13T11:55:06Z</time>
      </trkpt>
      <trkpt lat="48.20887" lon="-3.07439">
        <ele>119</ele>
        <time>2015-05-13T11:55:21Z</time>
      </trkpt>
      <trkpt lat="48.2092" lon="-3.07293">
        <ele>157</ele>
        <time>2015-05-13T11:57:54Z</time>
      </trkpt>
      <trkpt lat="48.20943" lon="-3.07273">
        <ele>156</ele>
        <time>2015-05-13T11:58:20Z</time>
      </trkpt>
      <trkpt lat="48.21037" lon="-3.07278">
        <ele>137</ele>
        <time>2015-05-13T12:00:29Z</time>
      </trkpt>
      <trkpt lat="48.21115" lon="-3.0746">
        <ele>130</ele>
        <time>2015-05-13T12:04:08Z</time>
      </trkpt>
      <trkpt lat="48.21123" lon="-3.07459">
        <ele>119</ele>
        <time>2015-05-13T12:05:24Z</time>
      </trkpt>
      <trkpt lat="48.21247" lon="-3.07302">
        <ele>139</ele>
        <time>2015-05-13T12:08:30Z</time>
      </trkpt>
      <trkpt lat="48.21241" lon="-3.07355">
        <ele>152</ele>
        <time>2015-05-13T12:09:21Z</time>
      </trkpt>
      <trkpt lat="48.21206" lon="-3.07713">
        <ele>148</ele>
        <time>2015-05-13T12:14:42Z</time>
      </trkpt>
      <trkpt lat="48.21402" lon="-3.07779">
        <ele>142</ele>
        <time>2015-05-13T12:18:09Z</time>
      </trkpt>
      <trkpt lat="48.21418" lon="-3.07971">
        <ele>132</ele>
        <time>2015-05-13T12:22:18Z</time>
      </trkpt>
      <trkpt lat="48.21412" lon="-3.07983">
        <ele>132</ele>
        <time>2015-05-13T12:22:23Z</time>
      </trkpt>
      <trkpt lat="48.2134" lon="-3.0807">
        <ele>154</ele>
        <time>2015-05-13T12:28:27Z</time>
      </trkpt>
      <trkpt lat="48.21447" lon="-3.0824">
        <ele>148</ele>
        <time>2015-05-13T12:35:06Z</time>
      </trkpt>
      <trkpt lat="48.21381" lon="-3.08242">
        <ele>155</ele>
        <time>2015-05-13T12:37:19Z</time>
      </trkpt>
      <trkpt lat="48.21346" lon="-3.08146">
        <ele>157</ele>
        <time>2015-05-13T12:39:22Z</time>
      </trkpt>
      <trkpt lat="48.21301" lon="-3.07986">
        <ele>130</ele>
        <time>2015-05-13T12:41:38Z</time>
      </trkpt>
      <trkpt lat="48.21249" lon="-3.08054">
        <ele>123</ele>
        <time>2015-05-13T12:43:49Z</time>
      </trkpt>
      <trkpt lat="48.21239" lon="-3.08161">
        <ele>112</ele>
        <time>2015-05-13T12:44:48Z</time>
      </trkpt>
      <trkpt lat="48.2112" lon="-3.08359">
        <ele>125</ele>
        <time>2015-05-13T12:50:50Z</time>
      </trkpt>
      <trkpt lat="48.2114" lon="-3.08625">
        <ele>141</ele>
        <time>2015-05-13T12:55:48Z</time>
      </trkpt>
      <trkpt lat="48.21146" lon="-3.08833">
        <ele>132</ele>
        <time>2015-05-13T12:57:52Z</time>
      </trkpt>
      <trkpt lat="48.21018" lon="-3.08729">
        <ele>116</ele>
        <time>2015-05-13T13:01:01Z</time>
      </trkpt>
      <trkpt lat="48.20855" lon="-3.08745">
        <ele>161</ele>
        <time>2015-05-13T13:06:03Z</time>
      </trkpt>
      <trkpt lat="48.20779" lon="-3.08789">
        <ele>159</ele>
        <time>2015-05-13T13:09:32Z</time>
      </trkpt>
      <trkpt lat="48.20764" lon="-3.08674">
        <ele>121</ele>
        <time>2015-05-13T13:13:22Z</time>
      </trkpt>
      <trkpt lat="48.20488" lon="-3.08688">
        <ele>110</ele>
        <time>2015-05-13T13:20:48Z</time>
      </trkpt>
      <trkpt lat="48.20477" lon="-3.08688">
        <ele>110</ele>
        <time>2015-05-13T13:20:58Z</time>
      </trkpt>
      <trkpt lat="48.20295" lon="-3.09124">
        <ele>141</ele>
        <time>2015-05-13T13:28:06Z</time>
      </trkpt>
      <trkpt lat="48.20294" lon="-3.09133">
        <ele>145</ele>
        <time>2015-05-13T13:28:13Z</time>
      </trkpt>
      <trkpt lat="48.20274" lon="-3.09274">
        <ele>138</ele>
        <time>2015-05-13T13:29:56Z</time>
      </trkpt>
      <trkpt lat="48.20339" lon="-3.09379">
        <ele>132</ele>
        <time>2015-05-13T13:31:53Z</time>
      </trkpt>
      <trkpt lat="48.20528" lon="-3.09427">
        <ele>123</ele>
        <time>2015-05-13T13:35:51Z</time>
      </trkpt>
      <trkpt lat="48.20591" lon="-3.09542">
        <ele>108</ele>
        <time>2015-05-13T13:37:48Z</time>
      </trkpt>
      <trkpt lat="48.20621" lon="-3.09554">
        <ele>132</ele>
        <time>2015-05-13T13:39:48Z</time>
      </trkpt>
      <trkpt lat="48.20673" lon="-3.09637">
        <ele>123</ele>
        <time>2015-05-13T13:41:17Z</time>
      </trkpt>
      <trkpt lat="48.20694" lon="-3.09998">
        <ele>128</ele>
        <time>2015-05-13T13:47:11Z</time>
      </trkpt>
      <trkpt lat="48.20617" lon="-3.10348">
        <ele>113</ele>
        <time>2015-05-13T13:51:51Z</time>
      </trkpt>
      <trkpt lat="48.20586" lon="-3.10501">
        <ele>126</ele>
        <time>2015-05-13T13:53:32Z</time>
      </trkpt>
      <trkpt lat="48.20639" lon="-3.10604">
        <ele>129</ele>
        <time>2015-05-13T13:54:58Z</time>
      </trkpt>
      <trkpt lat="48.20753" lon="-3.10595">
        <ele>141</ele>
        <time>2015-05-13T13:57:14Z</time>
      </trkpt>
      <trkpt lat="48.2089" lon="-3.10743">
        <ele>120</ele>
        <time>2015-05-13T13:59:34Z</time>
      </trkpt>
      <trkpt lat="48.20863" lon="-3.10865">
        <ele>115</ele>
        <time>2015-05-13T14:00:58Z</time>
      </trkpt>
      <trkpt lat="48.20834" lon="-3.10915">
        <ele>115</ele>
        <time>2015-05-13T14:01:46Z</time>
      </trkpt>
      <trkpt lat="48.20588" lon="-3.11053">
        <ele>127</ele>
        <time>2015-05-13T14:07:06Z</time>
      </trkpt>
      <trkpt lat="48.20572" lon="-3.11202">
        <ele>120</ele>
        <time>2015-05-13T14:08:28Z</time>
      </trkpt>
      <trkpt lat="48.20723" lon="-3.11512">
        <ele>124</ele>
        <time>2015-05-13T14:11:55Z</time>
      </trkpt>
      <trkpt lat="48.20859" lon="-3.11615">
        <ele>120</ele>
        <time>2015-05-13T14:13:56Z</time>
      </trkpt>
      <trkpt lat="48.2095" lon="-3.11585">
        <ele>140</ele>
        <time>2015-05-13T14:15:08Z</time>
      </trkpt>
      <trkpt lat="48.20974" lon="-3.11585">
        <ele>136</ele>
        <time>2015-05-13T14:15:27Z</time>
      </trkpt>
      <trkpt lat="48.21074" lon="-3.11831">
        <ele>119</ele>
        <time>2015-05-13T14:17:57Z</time>
      </trkpt>
      <trkpt lat="48.21077" lon="-3.11835">
        <ele>119</ele>
        <time>2015-05-13T14:17:59Z</time>
      </trkpt>
      <trkpt lat="48.21065" lon="-3.12755">
        <ele>122</ele>
        <time>2015-05-13T14:25:41Z</time>
      </trkpt>
      <trkpt lat="48.21236" lon="-3.12944">
        <ele>124</ele>
        <time>2015-05-13T14:29:11Z</time>
      </trkpt>
      <trkpt lat="48.21421" lon="-3.12816">
        <ele>125</ele>
        <time>2015-05-13T14:33:49Z</time>
      </trkpt>
    </trkseg>
  </trk>
</gpx>